sensor_id;sensor_type;location;lat;lon;timestamp;pressure;altitude;pressure_sealevel;temperature;humidity
84522;BME280;74758;50.066;20.008;2024-03-08T00:35:00;99918.78;;;2.35;63.10
84522;BME280;74758;50.066;20.008;2024-03-08T00:36:02;99913.88;;;2.36;63.05
84522;BME280;74758;50.066;20.008;2024-03-08T00:37:04;99913.10;;;2.38;62.95
84522;BME280;74758;50.066;20.008;2024-03-08T00:38:06;99913.59;;;2.38;62.92
84522;BME280;74758;50.066;20.008;2024-03-08T00:39:08;99910.73;;;2.40;62.93
84522;BME280;74758;50.066;20.008;2024-03-08T00:40:10;99912.83;;;2.43;62.91
84522;BME280;74758;50.066;20.008;2024-03-08T00:41:12;99914.29;;;2.45;62.82
84522;BME280;74758;50.066;20.008;2024-03-08T00:42:14;99909.36;;;2.47;62.75
84522;BME280;74758;50.066;20.008;2024-03-08T00:43:16;99909.10;;;2.49;62.80
84522;BME280;74758;50.066;20.008;2024-03-08T00:44:17;99909.72;;;2.50;62.82
84522;BME280;74758;50.066;20.008;2024-03-08T00:45:19;99909.52;;;2.51;62.78
84522;BME280;74758;50.066;20.008;2024-03-08T00:46:20;99909.83;;;2.52;62.75
84522;BME280;74758;50.066;20.008;2024-03-08T00:47:22;99908.55;;;2.53;62.62
84522;BME280;74758;50.066;20.008;2024-03-08T00:48:24;99909.91;;;2.54;62.93
84522;BME280;74758;50.066;20.008;2024-03-08T00:49:26;99909.88;;;2.54;62.86
84522;BME280;74758;50.066;20.008;2024-03-08T00:50:27;99907.99;;;2.54;62.91
84522;BME280;74758;50.066;20.008;2024-03-08T00:51:29;99907.77;;;2.55;62.85
84522;BME280;74758;50.066;20.008;2024-03-08T00:52:31;99903.57;;;2.55;62.86
84522;BME280;74758;50.066;20.008;2024-03-08T00:53:33;99904.08;;;2.56;62.73
84522;BME280;74758;50.066;20.008;2024-03-08T00:54:35;99903.52;;;2.57;62.86
84522;BME280;74758;50.066;20.008;2024-03-08T00:55:39;99901.62;;;2.57;62.90
84522;BME280;74758;50.066;20.008;2024-03-08T00:56:41;99902.78;;;2.58;62.83
84522;BME280;74758;50.066;20.008;2024-03-08T00:57:43;99901.67;;;2.60;62.59
84522;BME280;74758;50.066;20.008;2024-03-08T00:58:44;99900.98;;;2.60;62.47
84522;BME280;74758;50.066;20.008;2024-03-08T00:59:46;99901.83;;;2.60;62.57
84522;BME280;74758;50.066;20.008;2024-03-08T01:00:48;99900.77;;;2.61;62.44
84522;BME280;74758;50.066;20.008;2024-03-08T01:01:50;99902.98;;;2.62;62.52
84522;BME280;74758;50.066;20.008;2024-03-08T01:02:52;99899.63;;;2.63;62.64
84522;BME280;74758;50.066;20.008;2024-03-08T01:03:54;99897.14;;;2.64;62.44
84522;BME280;74758;50.066;20.008;2024-03-08T01:04:55;99902.68;;;2.64;62.48
84522;BME280;74758;50.066;20.008;2024-03-08T01:05:57;99899.88;;;2.65;62.39
84522;BME280;74758;50.066;20.008;2024-03-08T01:07:03;99899.55;;;2.65;62.29
84522;BME280;74758;50.066;20.008;2024-03-08T01:08:05;99898.36;;;2.64;62.12
84522;BME280;74758;50.066;20.008;2024-03-08T01:09:07;99898.23;;;2.63;62.30
84522;BME280;74758;50.066;20.008;2024-03-08T01:10:09;99899.77;;;2.63;62.27
84522;BME280;74758;50.066;20.008;2024-03-08T01:11:14;99895.51;;;2.62;62.16
84522;BME280;74758;50.066;20.008;2024-03-08T01:12:16;99896.98;;;2.60;61.80
84522;BME280;74758;50.066;20.008;2024-03-08T01:13:18;99898.27;;;2.58;61.91
84522;BME280;74758;50.066;20.008;2024-03-08T01:14:21;99895.57;;;2.56;61.87
84522;BME280;74758;50.066;20.008;2024-03-08T01:15:27;99897.00;;;2.55;61.94
84522;BME280;74758;50.066;20.008;2024-03-08T01:16:29;99893.01;;;2.55;61.97
84522;BME280;74758;50.066;20.008;2024-03-08T01:17:30;99892.80;;;2.56;61.95
84522;BME280;74758;50.066;20.008;2024-03-08T01:18:32;99891.90;;;2.57;61.89
84522;BME280;74758;50.066;20.008;2024-03-08T01:19:35;99888.89;;;2.58;61.80
84522;BME280;74758;50.066;20.008;2024-03-08T01:20:36;99892.48;;;2.60;61.74
84522;BME280;74758;50.066;20.008;2024-03-08T01:21:38;99888.48;;;2.60;61.65
84522;BME280;74758;50.066;20.008;2024-03-08T01:22:40;99889.84;;;2.61;61.76
84522;BME280;74758;50.066;20.008;2024-03-08T01:23:41;99883.98;;;2.59;61.65
84522;BME280;74758;50.066;20.008;2024-03-08T01:24:44;99883.35;;;2.58;61.59
84522;BME280;74758;50.066;20.008;2024-03-08T01:25:45;99886.36;;;2.56;61.75
84522;BME280;74758;50.066;20.008;2024-03-08T01:26:47;99883.65;;;2.55;61.84
84522;BME280;74758;50.066;20.008;2024-03-08T01:27:49;99881.66;;;2.53;61.92
84522;BME280;74758;50.066;20.008;2024-03-08T01:28:51;99880.09;;;2.53;61.85
84522;BME280;74758;50.066;20.008;2024-03-08T01:29:52;99879.44;;;2.52;61.93
84522;BME280;74758;50.066;20.008;2024-03-08T01:30:54;99877.89;;;2.52;61.91
84522;BME280;74758;50.066;20.008;2024-03-08T01:31:58;99879.23;;;2.53;62.03
84522;BME280;74758;50.066;20.008;2024-03-08T01:33:03;99877.48;;;2.53;61.97
84522;BME280;74758;50.066;20.008;2024-03-08T01:34:05;99879.45;;;2.52;61.99
84522;BME280;74758;50.066;20.008;2024-03-08T01:35:07;99878.27;;;2.51;61.88
84522;BME280;74758;50.066;20.008;2024-03-08T01:36:11;99875.88;;;2.50;61.98
84522;BME280;74758;50.066;20.008;2024-03-08T01:37:17;99876.58;;;2.51;61.99
84522;BME280;74758;50.066;20.008;2024-03-08T01:38:19;99875.09;;;2.49;62.09
84522;BME280;74758;50.066;20.008;2024-03-08T01:39:22;99874.47;;;2.48;62.06
84522;BME280;74758;50.066;20.008;2024-03-08T01:40:24;99876.41;;;2.47;62.11
84522;BME280;74758;50.066;20.008;2024-03-08T01:41:26;99876.35;;;2.44;61.97
84522;BME280;74758;50.066;20.008;2024-03-08T01:42:31;99874.21;;;2.42;61.84
84522;BME280;74758;50.066;20.008;2024-03-08T01:43:33;99871.52;;;2.40;61.97
84522;BME280;74758;50.066;20.008;2024-03-08T01:44:34;99872.27;;;2.39;61.98
84522;BME280;74758;50.066;20.008;2024-03-08T01:45:36;99872.45;;;2.39;61.98
84522;BME280;74758;50.066;20.008;2024-03-08T01:46:38;99868.64;;;2.39;61.76
84522;BME280;74758;50.066;20.008;2024-03-08T01:47:40;99868.20;;;2.37;61.94
84522;BME280;74758;50.066;20.008;2024-03-08T01:48:42;99870.30;;;2.37;61.92
84522;BME280;74758;50.066;20.008;2024-03-08T01:49:45;99869.56;;;2.38;61.98
84522;BME280;74758;50.066;20.008;2024-03-08T01:50:46;99868.80;;;2.39;61.94
84522;BME280;74758;50.066;20.008;2024-03-08T01:51:49;99870.20;;;2.39;61.90
84522;BME280;74758;50.066;20.008;2024-03-08T01:52:51;99872.56;;;2.40;61.93
84522;BME280;74758;50.066;20.008;2024-03-08T01:53:54;99870.15;;;2.40;62.03
84522;BME280;74758;50.066;20.008;2024-03-08T01:55:02;99868.77;;;2.40;61.93
84522;BME280;74758;50.066;20.008;2024-03-08T01:56:10;99870.55;;;2.39;62.10
84522;BME280;74758;50.066;20.008;2024-03-08T01:57:15;99869.03;;;2.38;62.07
84522;BME280;74758;50.066;20.008;2024-03-08T01:58:17;99864.86;;;2.38;62.33
84522;BME280;74758;50.066;20.008;2024-03-08T01:59:23;99863.10;;;2.39;62.10
84522;BME280;74758;50.066;20.008;2024-03-08T02:00:26;99865.35;;;2.39;61.92
84522;BME280;74758;50.066;20.008;2024-03-08T02:01:28;99862.97;;;2.38;62.13
84522;BME280;74758;50.066;20.008;2024-03-08T02:02:33;99862.46;;;2.37;62.06
84522;BME280;74758;50.066;20.008;2024-03-08T02:03:36;99858.52;;;2.36;62.14
84522;BME280;74758;50.066;20.008;2024-03-08T02:04:38;99860.38;;;2.37;62.27
84522;BME280;74758;50.066;20.008;2024-03-08T02:05:41;99859.98;;;2.38;62.22
84522;BME280;74758;50.066;20.008;2024-03-08T02:06:42;99859.09;;;2.39;62.34
84522;BME280;74758;50.066;20.008;2024-03-08T02:07:44;99859.59;;;2.39;62.22
84522;BME280;74758;50.066;20.008;2024-03-08T02:08:46;99856.10;;;2.40;62.18
84522;BME280;74758;50.066;20.008;2024-03-08T02:09:48;99855.92;;;2.40;62.22
84522;BME280;74758;50.066;20.008;2024-03-08T02:10:50;99857.40;;;2.42;62.19
84522;BME280;74758;50.066;20.008;2024-03-08T02:11:52;99854.58;;;2.43;62.11
84522;BME280;74758;50.066;20.008;2024-03-08T02:12:56;99855.45;;;2.42;62.16
84522;BME280;74758;50.066;20.008;2024-03-08T02:13:58;99852.67;;;2.43;62.20
84522;BME280;74758;50.066;20.008;2024-03-08T02:14:59;99851.23;;;2.43;62.19
84522;BME280;74758;50.066;20.008;2024-03-08T02:16:01;99846.32;;;2.45;62.09
84522;BME280;74758;50.066;20.008;2024-03-08T02:17:03;99848.71;;;2.46;62.01
84522;BME280;74758;50.066;20.008;2024-03-08T02:18:06;99846.72;;;2.47;62.08
84522;BME280;74758;50.066;20.008;2024-03-08T02:19:08;99843.58;;;2.47;62.00
84522;BME280;74758;50.066;20.008;2024-03-08T02:20:11;99847.06;;;2.47;61.93
84522;BME280;74758;50.066;20.008;2024-03-08T02:21:17;99845.94;;;2.45;61.98
84522;BME280;74758;50.066;20.008;2024-03-08T02:22:22;99846.17;;;2.44;61.91
84522;BME280;74758;50.066;20.008;2024-03-08T02:23:25;99849.89;;;2.42;62.09
84522;BME280;74758;50.066;20.008;2024-03-08T02:24:27;99847.14;;;2.42;62.09
84522;BME280;74758;50.066;20.008;2024-03-08T02:25:29;99849.23;;;2.42;62.14
84522;BME280;74758;50.066;20.008;2024-03-08T02:26:32;99848.02;;;2.42;62.17
84522;BME280;74758;50.066;20.008;2024-03-08T02:27:34;99845.10;;;2.41;62.13
84522;BME280;74758;50.066;20.008;2024-03-08T02:28:36;99846.28;;;2.42;62.05
84522;BME280;74758;50.066;20.008;2024-03-08T02:29:38;99843.17;;;2.41;61.97
84522;BME280;74758;50.066;20.008;2024-03-08T02:30:42;99842.79;;;2.42;61.87
84522;BME280;74758;50.066;20.008;2024-03-08T02:31:44;99844.89;;;2.42;61.91
84522;BME280;74758;50.066;20.008;2024-03-08T02:32:45;99845.07;;;2.42;62.04
84522;BME280;74758;50.066;20.008;2024-03-08T02:33:47;99845.25;;;2.41;62.17
84522;BME280;74758;50.066;20.008;2024-03-08T02:34:49;99845.05;;;2.42;62.04
84522;BME280;74758;50.066;20.008;2024-03-08T02:35:51;99845.77;;;2.42;62.12
84522;BME280;74758;50.066;20.008;2024-03-08T02:36:53;99847.32;;;2.42;62.11
84522;BME280;74758;50.066;20.008;2024-03-08T02:37:55;99843.65;;;2.43;62.16
84522;BME280;74758;50.066;20.008;2024-03-08T02:38:56;99838.73;;;2.44;61.96
84522;BME280;74758;50.066;20.008;2024-03-08T02:39:58;99842.88;;;2.44;61.96
84522;BME280;74758;50.066;20.008;2024-03-08T02:41:00;99841.55;;;2.43;61.89
84522;BME280;74758;50.066;20.008;2024-03-08T02:42:01;99842.93;;;2.43;62.09
84522;BME280;74758;50.066;20.008;2024-03-08T02:43:03;99841.48;;;2.44;61.83
84522;BME280;74758;50.066;20.008;2024-03-08T02:44:06;99844.96;;;2.44;61.82
84522;BME280;74758;50.066;20.008;2024-03-08T02:45:08;99840.48;;;2.43;61.67
84522;BME280;74758;50.066;20.008;2024-03-08T02:46:11;99841.20;;;2.43;61.60
84522;BME280;74758;50.066;20.008;2024-03-08T02:47:13;99844.55;;;2.42;61.67
84522;BME280;74758;50.066;20.008;2024-03-08T02:48:15;99842.86;;;2.41;61.89
84522;BME280;74758;50.066;20.008;2024-03-08T02:49:18;99844.13;;;2.40;61.91
84522;BME280;74758;50.066;20.008;2024-03-08T02:50:20;99845.71;;;2.39;61.94
84522;BME280;74758;50.066;20.008;2024-03-08T02:51:21;99842.41;;;2.40;62.01
84522;BME280;74758;50.066;20.008;2024-03-08T02:52:23;99844.85;;;2.39;61.97
84522;BME280;74758;50.066;20.008;2024-03-08T02:53:24;99844.89;;;2.38;62.13
84522;BME280;74758;50.066;20.008;2024-03-08T02:54:26;99848.35;;;2.38;62.26
84522;BME280;74758;50.066;20.008;2024-03-08T02:55:28;99845.94;;;2.38;62.13
84522;BME280;74758;50.066;20.008;2024-03-08T02:56:29;99846.39;;;2.40;62.20
84522;BME280;74758;50.066;20.008;2024-03-08T02:57:31;99848.05;;;2.41;62.07
84522;BME280;74758;50.066;20.008;2024-03-08T02:58:33;99846.36;;;2.40;61.99
84522;BME280;74758;50.066;20.008;2024-03-08T02:59:35;99848.11;;;2.40;62.10
84522;BME280;74758;50.066;20.008;2024-03-08T03:00:37;99846.65;;;2.38;62.31
84522;BME280;74758;50.066;20.008;2024-03-08T03:01:41;99846.80;;;2.38;62.36
84522;BME280;74758;50.066;20.008;2024-03-08T03:02:42;99849.23;;;2.38;62.30
84522;BME280;74758;50.066;20.008;2024-03-08T03:03:44;99847.52;;;2.38;62.36
84522;BME280;74758;50.066;20.008;2024-03-08T03:04:46;99847.62;;;2.39;62.43
84522;BME280;74758;50.066;20.008;2024-03-08T03:05:47;99845.03;;;2.39;62.29
84522;BME280;74758;50.066;20.008;2024-03-08T03:06:50;99849.20;;;2.39;62.27
84522;BME280;74758;50.066;20.008;2024-03-08T03:07:52;99845.80;;;2.37;61.94
84522;BME280;74758;50.066;20.008;2024-03-08T03:08:54;99845.21;;;2.35;62.10
84522;BME280;74758;50.066;20.008;2024-03-08T03:09:56;99847.33;;;2.35;62.17
84522;BME280;74758;50.066;20.008;2024-03-08T03:10:57;99847.70;;;2.34;62.35
84522;BME280;74758;50.066;20.008;2024-03-08T03:11:59;99845.77;;;2.34;62.43
84522;BME280;74758;50.066;20.008;2024-03-08T03:13:01;99847.93;;;2.36;62.50
84522;BME280;74758;50.066;20.008;2024-03-08T03:14:03;99843.60;;;2.36;62.22
84522;BME280;74758;50.066;20.008;2024-03-08T03:15:05;99846.73;;;2.36;62.22
84522;BME280;74758;50.066;20.008;2024-03-08T03:16:08;99846.88;;;2.37;62.22
84522;BME280;74758;50.066;20.008;2024-03-08T03:17:11;99844.48;;;2.36;62.09
84522;BME280;74758;50.066;20.008;2024-03-08T03:18:13;99841.05;;;2.35;62.05
84522;BME280;74758;50.066;20.008;2024-03-08T03:19:15;99843.84;;;2.35;62.33
84522;BME280;74758;50.066;20.008;2024-03-08T03:20:18;99842.63;;;2.35;62.16
84522;BME280;74758;50.066;20.008;2024-03-08T03:21:28;99845.41;;;2.35;62.33
84522;BME280;74758;50.066;20.008;2024-03-08T03:22:33;99844.27;;;2.33;62.20
84522;BME280;74758;50.066;20.008;2024-03-08T03:23:36;99845.58;;;2.31;62.26
84522;BME280;74758;50.066;20.008;2024-03-08T03:24:38;99847.16;;;2.31;62.41
84522;BME280;74758;50.066;20.008;2024-03-08T03:25:40;99849.43;;;2.30;62.49
84522;BME280;74758;50.066;20.008;2024-03-08T03:26:43;99847.73;;;2.30;62.53
84522;BME280;74758;50.066;20.008;2024-03-08T03:27:45;99848.10;;;2.29;62.63
84522;BME280;74758;50.066;20.008;2024-03-08T03:28:47;99847.55;;;2.30;62.51
84522;BME280;74758;50.066;20.008;2024-03-08T03:29:50;99848.23;;;2.30;62.46
84522;BME280;74758;50.066;20.008;2024-03-08T03:30:53;99847.56;;;2.30;62.35
84522;BME280;74758;50.066;20.008;2024-03-08T03:31:55;99849.72;;;2.28;62.41
84522;BME280;74758;50.066;20.008;2024-03-08T03:32:56;99848.21;;;2.27;62.47
84522;BME280;74758;50.066;20.008;2024-03-08T03:34:02;99844.63;;;2.26;62.40
84522;BME280;74758;50.066;20.008;2024-03-08T03:35:05;99848.51;;;2.24;62.46
84522;BME280;74758;50.066;20.008;2024-03-08T03:36:07;99849.98;;;2.22;62.34
84522;BME280;74758;50.066;20.008;2024-03-08T03:37:13;99849.16;;;2.21;62.33
84522;BME280;74758;50.066;20.008;2024-03-08T03:38:15;99849.38;;;2.20;62.13
84522;BME280;74758;50.066;20.008;2024-03-08T03:39:17;99848.35;;;2.20;62.25
84522;BME280;74758;50.066;20.008;2024-03-08T03:40:21;99849.04;;;2.20;62.47
84522;BME280;74758;50.066;20.008;2024-03-08T03:41:25;99845.86;;;2.21;62.41
84522;BME280;74758;50.066;20.008;2024-03-08T03:42:26;99847.20;;;2.23;62.43
84522;BME280;74758;50.066;20.008;2024-03-08T03:43:28;99845.61;;;2.23;62.53
84522;BME280;74758;50.066;20.008;2024-03-08T03:44:30;99845.81;;;2.22;62.50
84522;BME280;74758;50.066;20.008;2024-03-08T03:45:32;99844.44;;;2.22;62.72
84522;BME280;74758;50.066;20.008;2024-03-08T03:46:41;99846.83;;;2.23;62.75
84522;BME280;74758;50.066;20.008;2024-03-08T03:47:46;99846.90;;;2.21;62.86
84522;BME280;74758;50.066;20.008;2024-03-08T03:48:47;99848.97;;;2.22;62.84
84522;BME280;74758;50.066;20.008;2024-03-08T03:49:49;99847.55;;;2.22;62.89
84522;BME280;74758;50.066;20.008;2024-03-08T03:50:51;99848.65;;;2.25;62.88
84522;BME280;74758;50.066;20.008;2024-03-08T03:51:52;99849.41;;;2.27;62.84
84522;BME280;74758;50.066;20.008;2024-03-08T03:52:54;99851.23;;;2.29;62.89
84522;BME280;74758;50.066;20.008;2024-03-08T03:53:56;99845.70;;;2.29;62.65
84522;BME280;74758;50.066;20.008;2024-03-08T03:54:59;99847.81;;;2.28;62.82
84522;BME280;74758;50.066;20.008;2024-03-08T03:56:00;99842.95;;;2.28;62.97
84522;BME280;74758;50.066;20.008;2024-03-08T03:57:02;99841.71;;;2.29;62.93
84522;BME280;74758;50.066;20.008;2024-03-08T03:58:04;99842.10;;;2.28;62.82
84522;BME280;74758;50.066;20.008;2024-03-08T03:59:06;99842.36;;;2.26;62.89
84522;BME280;74758;50.066;20.008;2024-03-08T04:00:08;99842.08;;;2.24;63.10
84522;BME280;74758;50.066;20.008;2024-03-08T04:01:13;99840.40;;;2.23;63.14
84522;BME280;74758;50.066;20.008;2024-03-08T04:02:15;99843.50;;;2.23;63.20
84522;BME280;74758;50.066;20.008;2024-03-08T04:03:17;99840.89;;;2.24;63.02
84522;BME280;74758;50.066;20.008;2024-03-08T04:04:19;99837.63;;;2.23;63.17
84522;BME280;74758;50.066;20.008;2024-03-08T04:05:20;99838.35;;;2.22;62.86
84522;BME280;74758;50.066;20.008;2024-03-08T04:06:22;99838.33;;;2.23;62.84
84522;BME280;74758;50.066;20.008;2024-03-08T04:07:25;99838.69;;;2.23;62.81
84522;BME280;74758;50.066;20.008;2024-03-08T04:08:26;99833.46;;;2.23;62.74
84522;BME280;74758;50.066;20.008;2024-03-08T04:09:28;99831.89;;;2.23;62.48
84522;BME280;74758;50.066;20.008;2024-03-08T04:10:30;99832.26;;;2.23;62.65
84522;BME280;74758;50.066;20.008;2024-03-08T04:11:32;99832.08;;;2.23;62.60
84522;BME280;74758;50.066;20.008;2024-03-08T04:12:34;99833.27;;;2.24;62.61
84522;BME280;74758;50.066;20.008;2024-03-08T04:13:36;99832.55;;;2.24;62.76
84522;BME280;74758;50.066;20.008;2024-03-08T04:14:41;99833.95;;;2.24;62.79
84522;BME280;74758;50.066;20.008;2024-03-08T04:15:43;99835.16;;;2.24;62.91
84522;BME280;74758;50.066;20.008;2024-03-08T04:16:50;99833.23;;;2.24;62.92
84522;BME280;74758;50.066;20.008;2024-03-08T04:17:52;99836.47;;;2.26;62.89
84522;BME280;74758;50.066;20.008;2024-03-08T04:18:54;99835.73;;;2.27;62.82
84522;BME280;74758;50.066;20.008;2024-03-08T04:19:56;99835.42;;;2.30;62.97
84522;BME280;74758;50.066;20.008;2024-03-08T04:20:58;99837.61;;;2.31;62.79
84522;BME280;74758;50.066;20.008;2024-03-08T04:22:01;99835.52;;;2.31;62.71
84522;BME280;74758;50.066;20.008;2024-03-08T04:23:03;99832.09;;;2.30;62.47
84522;BME280;74758;50.066;20.008;2024-03-08T04:24:05;99831.43;;;2.30;62.26
84522;BME280;74758;50.066;20.008;2024-03-08T04:25:08;99835.27;;;2.29;62.42
84522;BME280;74758;50.066;20.008;2024-03-08T04:26:11;99835.64;;;2.29;62.43
84522;BME280;74758;50.066;20.008;2024-03-08T04:27:13;99838.16;;;2.27;62.36
84522;BME280;74758;50.066;20.008;2024-03-08T04:28:19;99837.03;;;2.25;62.63
84522;BME280;74758;50.066;20.008;2024-03-08T04:29:20;99837.48;;;2.22;62.33
84522;BME280;74758;50.066;20.008;2024-03-08T04:30:23;99840.80;;;2.18;62.50
84522;BME280;74758;50.066;20.008;2024-03-08T04:31:26;99841.11;;;2.15;62.62
84522;BME280;74758;50.066;20.008;2024-03-08T04:32:28;99841.88;;;2.14;62.72
84522;BME280;74758;50.066;20.008;2024-03-08T04:33:34;99839.17;;;2.12;62.75
84522;BME280;74758;50.066;20.008;2024-03-08T04:34:37;99840.20;;;2.09;62.86
84522;BME280;74758;50.066;20.008;2024-03-08T04:35:39;99838.21;;;2.07;63.03
84522;BME280;74758;50.066;20.008;2024-03-08T04:36:40;99840.20;;;2.05;63.08
84522;BME280;74758;50.066;20.008;2024-03-08T04:37:42;99839.73;;;2.04;63.24
84522;BME280;74758;50.066;20.008;2024-03-08T04:38:44;99840.15;;;2.03;63.20
84522;BME280;74758;50.066;20.008;2024-03-08T04:39:45;99840.05;;;2.01;63.27
84522;BME280;74758;50.066;20.008;2024-03-08T04:40:49;99838.70;;;2.00;63.35
84522;BME280;74758;50.066;20.008;2024-03-08T04:41:51;99839.60;;;2.00;63.30
84522;BME280;74758;50.066;20.008;2024-03-08T04:42:53;99842.56;;;1.99;63.47
84522;BME280;74758;50.066;20.008;2024-03-08T04:43:55;99839.07;;;2.00;63.47
84522;BME280;74758;50.066;20.008;2024-03-08T04:44:59;99840.27;;;2.00;63.35
84522;BME280;74758;50.066;20.008;2024-03-08T04:46:01;99838.96;;;1.99;63.43
84522;BME280;74758;50.066;20.008;2024-03-08T04:47:05;99841.21;;;1.99;63.46
84522;BME280;74758;50.066;20.008;2024-03-08T04:48:10;99841.23;;;1.98;63.49
84522;BME280;74758;50.066;20.008;2024-03-08T04:49:13;99839.65;;;1.99;63.46
84522;BME280;74758;50.066;20.008;2024-03-08T04:50:14;99840.91;;;2.01;63.35
84522;BME280;74758;50.066;20.008;2024-03-08T04:51:16;99841.05;;;2.02;63.35
84522;BME280;74758;50.066;20.008;2024-03-08T04:52:18;99843.55;;;2.04;63.40
84522;BME280;74758;50.066;20.008;2024-03-08T04:53:20;99845.59;;;2.05;63.29
84522;BME280;74758;50.066;20.008;2024-03-08T04:54:22;99846.11;;;2.05;63.39
84522;BME280;74758;50.066;20.008;2024-03-08T04:55:23;99849.56;;;2.05;63.24
84522;BME280;74758;50.066;20.008;2024-03-08T04:56:26;99849.92;;;2.05;63.25
84522;BME280;74758;50.066;20.008;2024-03-08T04:57:28;99852.06;;;2.04;63.36
84522;BME280;74758;50.066;20.008;2024-03-08T04:58:29;99853.34;;;2.02;63.37
84522;BME280;74758;50.066;20.008;2024-03-08T04:59:31;99853.98;;;2.00;63.15
84522;BME280;74758;50.066;20.008;2024-03-08T05:00:33;99853.58;;;1.97;63.42
84522;BME280;74758;50.066;20.008;2024-03-08T05:01:34;99851.06;;;1.95;63.41
84522;BME280;74758;50.066;20.008;2024-03-08T05:02:39;99857.14;;;1.95;63.48
84522;BME280;74758;50.066;20.008;2024-03-08T05:03:41;99854.17;;;1.91;63.37
84522;BME280;74758;50.066;20.008;2024-03-08T05:04:43;99859.39;;;1.90;63.65
84522;BME280;74758;50.066;20.008;2024-03-08T05:05:44;99858.46;;;1.88;63.81
84522;BME280;74758;50.066;20.008;2024-03-08T05:06:47;99857.64;;;1.87;63.67
84522;BME280;74758;50.066;20.008;2024-03-08T05:07:49;99858.53;;;1.86;63.72
84522;BME280;74758;50.066;20.008;2024-03-08T05:08:51;99859.55;;;1.87;63.79
84522;BME280;74758;50.066;20.008;2024-03-08T05:09:53;99861.06;;;1.88;63.92
84522;BME280;74758;50.066;20.008;2024-03-08T05:10:54;99857.75;;;1.88;63.72
84522;BME280;74758;50.066;20.008;2024-03-08T05:11:57;99859.61;;;1.89;63.85
84522;BME280;74758;50.066;20.008;2024-03-08T05:13:01;99856.73;;;1.88;63.73
84522;BME280;74758;50.066;20.008;2024-03-08T05:14:03;99861.53;;;1.89;64.00
84522;BME280;74758;50.066;20.008;2024-03-08T05:15:05;99861.33;;;1.90;64.07
84522;BME280;74758;50.066;20.008;2024-03-08T05:16:08;99859.39;;;1.90;63.86
84522;BME280;74758;50.066;20.008;2024-03-08T05:17:10;99860.05;;;1.91;63.93
84522;BME280;74758;50.066;20.008;2024-03-08T05:18:12;99858.63;;;1.92;63.80
84522;BME280;74758;50.066;20.008;2024-03-08T05:19:17;99861.08;;;1.91;63.82
84522;BME280;74758;50.066;20.008;2024-03-08T05:20:19;99857.45;;;1.91;63.77
84522;BME280;74758;50.066;20.008;2024-03-08T05:21:21;99859.64;;;1.93;63.78
84522;BME280;74758;50.066;20.008;2024-03-08T05:22:23;99854.17;;;1.95;63.79
84522;BME280;74758;50.066;20.008;2024-03-08T05:23:24;99858.23;;;1.98;63.79
84522;BME280;74758;50.066;20.008;2024-03-08T05:24:26;99861.73;;;2.01;63.70
84522;BME280;74758;50.066;20.008;2024-03-08T05:25:28;99856.59;;;2.03;63.58
84522;BME280;74758;50.066;20.008;2024-03-08T05:26:29;99851.19;;;2.04;63.64
84522;BME280;74758;50.066;20.008;2024-03-08T05:27:32;99849.88;;;2.02;63.70
84522;BME280;74758;50.066;20.008;2024-03-08T05:28:33;99849.13;;;2.00;63.64
84522;BME280;74758;50.066;20.008;2024-03-08T05:29:35;99850.54;;;2.00;63.75
84522;BME280;74758;50.066;20.008;2024-03-08T05:30:38;99851.95;;;1.99;63.64
84522;BME280;74758;50.066;20.008;2024-03-08T05:31:58;99850.42;;;1.98;63.64
84522;BME280;74758;50.066;20.008;2024-03-08T05:33:00;99850.48;;;1.97;63.80
84522;BME280;74758;50.066;20.008;2024-03-08T05:34:02;99849.12;;;1.96;63.81
84522;BME280;74758;50.066;20.008;2024-03-08T05:35:05;99849.83;;;1.96;63.74
84522;BME280;74758;50.066;20.008;2024-03-08T05:36:08;99848.98;;;1.95;63.78
84522;BME280;74758;50.066;20.008;2024-03-08T05:37:10;99852.67;;;1.93;63.72
84522;BME280;74758;50.066;20.008;2024-03-08T05:38:12;99852.39;;;1.93;63.83
84522;BME280;74758;50.066;20.008;2024-03-08T05:39:15;99850.82;;;1.93;63.89
84522;BME280;74758;50.066;20.008;2024-03-08T05:40:17;99851.18;;;1.92;63.78
84522;BME280;74758;50.066;20.008;2024-03-08T05:41:22;99854.58;;;1.90;64.02
84522;BME280;74758;50.066;20.008;2024-03-08T05:42:24;99858.06;;;1.89;64.11
84522;BME280;74758;50.066;20.008;2024-03-08T05:43:25;99856.63;;;1.86;64.26
84522;BME280;74758;50.066;20.008;2024-03-08T05:44:27;99853.93;;;1.85;64.08
84522;BME280;74758;50.066;20.008;2024-03-08T05:45:30;99855.02;;;1.84;64.10
84522;BME280;74758;50.066;20.008;2024-03-08T05:46:32;99856.23;;;1.84;63.99
84522;BME280;74758;50.066;20.008;2024-03-08T05:47:33;99854.47;;;1.84;64.09
84522;BME280;74758;50.066;20.008;2024-03-08T05:48:35;99855.13;;;1.85;64.15
84522;BME280;74758;50.066;20.008;2024-03-08T05:49:37;99856.30;;;1.86;64.15
84522;BME280;74758;50.066;20.008;2024-03-08T05:50:40;99860.20;;;1.88;64.06
84522;BME280;74758;50.066;20.008;2024-03-08T05:51:42;99858.34;;;1.91;64.02
84522;BME280;74758;50.066;20.008;2024-03-08T05:52:44;99857.86;;;1.94;63.99
84522;BME280;74758;50.066;20.008;2024-03-08T05:53:46;99857.61;;;1.96;63.95
84522;BME280;74758;50.066;20.008;2024-03-08T05:54:48;99860.02;;;1.97;63.96
84522;BME280;74758;50.066;20.008;2024-03-08T05:55:50;99856.85;;;1.98;64.02
84522;BME280;74758;50.066;20.008;2024-03-08T05:56:51;99859.70;;;1.96;63.92
84522;BME280;74758;50.066;20.008;2024-03-08T05:57:54;99859.23;;;1.94;64.01
84522;BME280;74758;50.066;20.008;2024-03-08T05:58:57;99858.23;;;1.94;63.92
84522;BME280;74758;50.066;20.008;2024-03-08T05:59:59;99857.40;;;1.93;64.18
84522;BME280;74758;50.066;20.008;2024-03-08T06:01:01;99862.01;;;1.94;64.23
84522;BME280;74758;50.066;20.008;2024-03-08T06:02:03;99863.02;;;1.95;64.38
84522;BME280;74758;50.066;20.008;2024-03-08T06:03:05;99863.18;;;1.95;64.39
84522;BME280;74758;50.066;20.008;2024-03-08T06:04:06;99861.06;;;1.97;64.45
84522;BME280;74758;50.066;20.008;2024-03-08T06:05:12;99864.10;;;1.98;64.14